createdAt,value
2019-02-27T00:00:27.020Z,79.19
2019-02-27T00:01:07.452Z,79.57
2019-02-27T00:01:49.816Z,80.13
2019-02-27T00:02:28.230Z,79.19
2019-02-27T00:03:08.611Z,79.28
2019-02-27T00:03:49.015Z,79.85
2019-02-27T00:04:29.422Z,79.66
2019-02-27T00:05:09.833Z,79.66
2019-02-27T00:05:50.211Z,79.75
2019-02-27T00:06:30.613Z,80.8
2019-02-27T00:07:11.013Z,79.94
2019-02-27T00:07:51.853Z,79.94
2019-02-27T00:08:31.847Z,79.47
2019-02-27T00:09:12.231Z,79.66
2019-02-27T00:09:52.679Z,79.94
2019-02-27T00:10:33.020Z,78.8
2019-02-27T00:11:13.395Z,78.61
2019-02-27T00:11:53.792Z,78.61
2019-02-27T00:12:34.823Z,78.99
2019-02-27T00:13:15.224Z,79.38
2019-02-27T00:13:57.575Z,79.66
2019-02-27T00:14:36.030Z,79.19
2019-02-27T00:15:16.454Z,78.71
2019-02-27T00:15:56.814Z,78.52
2019-02-27T00:16:37.254Z,78.42
2019-02-27T00:17:18.013Z,78.42
2019-02-27T00:17:58.025Z,78.9
2019-02-27T00:18:38.440Z,78.9
2019-02-27T00:19:18.834Z,78.33
2019-02-27T00:19:59.225Z,77.19
2019-02-27T00:20:39.638Z,77.19
2019-02-27T00:21:20.043Z,77.76
2019-02-27T00:22:00.467Z,77.95
2019-02-27T00:22:40.838Z,77.85
2019-02-27T00:23:23.814Z,77.66
2019-02-27T00:24:02.069Z,77.47
2019-02-27T00:24:42.515Z,77.28
2019-02-27T00:25:22.873Z,76.52
2019-02-27T00:26:03.295Z,76.61
2019-02-27T00:26:43.707Z,76.9
2019-02-27T00:27:24.108Z,76.9
2019-02-27T00:28:04.535Z,76.33
2019-02-27T00:28:44.952Z,76.52
2019-02-27T00:29:28.784Z,76.81
2019-02-27T00:30:06.006Z,76.81
2019-02-27T00:30:46.179Z,76.81
2019-02-27T00:31:26.635Z,76.81
2019-02-27T00:32:07.023Z,77.19
2019-02-27T00:32:50.877Z,77.85
2019-02-27T00:33:28.661Z,77.66
2019-02-27T00:34:08.249Z,78.14
2019-02-27T00:34:48.663Z,78.04
2019-02-27T00:35:29.046Z,78.33
2019-02-27T00:36:11.958Z,78.8
2019-02-27T00:36:49.848Z,78.71
2019-02-27T00:37:30.285Z,78.52
2019-02-27T00:38:10.644Z,78.33
2019-02-27T00:38:51.027Z,77.85
2019-02-27T00:39:31.818Z,77.62
2019-02-27T00:40:11.861Z,77.66
2019-02-27T00:40:52.229Z,78.52
2019-02-27T00:41:32.607Z,78.38
2019-02-27T00:42:12.975Z,78.96
2019-02-27T00:42:54.275Z,79.28
2019-02-27T00:43:33.809Z,79.24
2019-02-27T00:44:15.212Z,79.47
2019-02-27T00:44:55.588Z,79.33
2019-02-27T00:45:39.618Z,80.04
2019-02-27T00:46:16.405Z,79.57
2019-02-27T00:46:56.815Z,79.33
2019-02-27T00:47:37.238Z,79.85
2019-02-27T00:48:17.702Z,79.57
2019-02-27T00:48:59.215Z,79.43
2019-02-27T00:49:38.493Z,79.38
2019-02-27T00:50:18.888Z,78.9
2019-02-27T00:50:59.308Z,78.42
2019-02-27T00:51:39.725Z,78.1
2019-02-27T00:52:20.116Z,78.19
2019-02-27T00:53:00.513Z,79.05
2019-02-27T00:53:40.869Z,79.14
2019-02-27T00:54:21.274Z,79.81
2019-02-27T00:55:03.945Z,80.38
2019-02-27T00:55:42.097Z,81.52
2019-02-27T00:56:22.488Z,81.62
2019-02-27T00:57:02.883Z,81.14
2019-02-27T00:57:43.259Z,81.14
2019-02-27T00:58:26.751Z,81.81
2019-02-27T00:59:04.049Z,81.71
2019-02-27T00:59:44.425Z,82
2019-02-27T01:00:24.829Z,81.71
2019-02-27T01:01:05.237Z,82.38
2019-02-27T01:01:47.426Z,81.24
2019-02-27T01:02:25.996Z,81.43
2019-02-27T01:03:06.412Z,81.24
2019-02-27T01:03:46.803Z,80.76
2019-02-27T01:04:27.217Z,80.86
2019-02-27T01:05:09.087Z,80.66
2019-02-27T01:05:48.022Z,81.33
2019-02-27T01:06:28.522Z,81.24
2019-02-27T01:07:08.812Z,81.05
2019-02-27T01:07:49.207Z,79.43
2019-02-27T01:08:29.598Z,79.91
2019-02-27T01:09:10.009Z,79.62
2019-02-27T01:09:50.436Z,79.52
2019-02-27T01:10:30.831Z,80
2019-02-27T01:11:11.250Z,80.1
2019-02-27T01:11:52.398Z,80.1
2019-02-27T01:12:32.054Z,79.81
2019-02-27T01:13:12.502Z,79.52
2019-02-27T01:13:52.861Z,80
2019-02-27T01:14:36.869Z,80.1
2019-02-27T01:15:13.645Z,80.1
2019-02-27T01:15:54.065Z,79.62
2019-02-27T01:16:34.484Z,79.62
2019-02-27T01:17:14.888Z,79.14
2019-02-27T01:17:57.422Z,79.43
2019-02-27T01:18:35.682Z,79.05
2019-02-27T01:19:16.072Z,79.14
2019-02-27T01:19:56.489Z,79.24
2019-02-27T01:20:36.891Z,78.86
2019-02-27T01:21:19.816Z,79.72
2019-02-27T01:21:57.698Z,79.52
2019-02-27T01:22:38.107Z,79.52
2019-02-27T01:23:18.542Z,81.01
2019-02-27T01:23:58.918Z,80.63
2019-02-27T01:24:39.278Z,80.86
2019-02-27T01:25:22.837Z,82.38
2019-02-27T01:26:00.075Z,81.52
2019-02-27T01:26:40.483Z,82.28
2019-02-27T01:27:20.854Z,81.81
2019-02-27T01:28:01.674Z,81.24
2019-02-27T01:28:44.517Z,81.29
2019-02-27T01:29:22.055Z,81.14
2019-02-27T01:30:02.465Z,80.86
2019-02-27T01:30:42.887Z,81.05
2019-02-27T01:31:24.014Z,80.76
2019-02-27T01:32:03.681Z,81.01
2019-02-27T01:32:44.056Z,81.2
2019-02-27T01:33:24.467Z,80.91
2019-02-27T01:34:05.835Z,81.77
2019-02-27T01:34:46.238Z,82.19
2019-02-27T01:35:26.630Z,82.05
2019-02-27T01:36:07.028Z,82.05
2019-02-27T01:36:47.438Z,81.77
2019-02-27T01:37:31.274Z,82.38
2019-02-27T01:38:08.216Z,81.86
2019-02-27T01:38:48.608Z,81.67
2019-02-27T01:39:29.006Z,82.38
2019-02-27T01:40:09.387Z,81.9
2019-02-27T01:40:51.523Z,82
2019-02-27T01:41:30.200Z,81.43
2019-02-27T01:42:10.573Z,81.71
2019-02-27T01:42:50.963Z,82.28
2019-02-27T01:43:31.325Z,81.05
2019-02-27T01:44:13.629Z,80.38
2019-02-27T01:44:52.077Z,80.95
2019-02-27T01:45:32.529Z,80.1
2019-02-27T01:46:12.881Z,79.72
2019-02-27T01:46:54.594Z,80.1
2019-02-27T01:47:35.614Z,79.81
2019-02-27T01:48:25.163Z,79.62
2019-02-27T01:49:05.565Z,79.62
2019-02-27T01:49:48.865Z,79.91
2019-02-27T01:50:28.088Z,79.72
2019-02-27T01:51:08.457Z,79.81
2019-02-27T01:56:46.237Z,80
2019-02-27T01:57:34.090Z,79.33
2019-02-27T01:59:53.914Z,81.38
2019-02-27T02:00:34.269Z,81.29
2019-02-27T02:01:14.655Z,82.15
2019-02-27T02:01:55.029Z,82.15
2019-02-27T02:02:37.330Z,82.71
2019-02-27T02:03:15.857Z,83
2019-02-27T02:03:56.330Z,83.39
2019-02-27T02:04:36.696Z,83.39
2019-02-27T02:05:17.101Z,83.48
2019-02-27T02:05:59.210Z,84.24
2019-02-27T02:06:37.904Z,84.33
2019-02-27T02:07:18.307Z,84.91
2019-02-27T02:07:58.693Z,85
2019-02-27T02:08:39.137Z,84.52
2019-02-27T02:09:21.167Z,84.05
2019-02-27T02:09:59.896Z,84.05
2019-02-27T02:10:40.331Z,85.1
2019-02-27T02:11:20.728Z,85.19
2019-02-27T02:12:01.129Z,85.66
2019-02-27T02:12:41.577Z,85
2019-02-27T02:13:21.929Z,84.62
2019-02-27T02:14:02.258Z,84.43
2019-02-27T02:14:42.688Z,84.33
2019-02-27T02:15:27.060Z,84.05
2019-02-27T02:16:03.491Z,83.76
2019-02-27T02:16:43.844Z,83.48
2019-02-27T02:17:24.267Z,83.86
2019-02-27T02:18:04.643Z,83.95
2019-02-27T02:18:45.708Z,83
2019-02-27T02:19:25.473Z,82.71
2019-02-27T02:20:05.833Z,82.62
2019-02-27T02:20:46.239Z,82.34
2019-02-27T02:21:26.628Z,82.34
2019-02-27T02:22:08.837Z,82.53
2019-02-27T02:22:47.480Z,82.71
2019-02-27T02:23:27.903Z,82.71
2019-02-27T02:24:08.277Z,82.43
2019-02-27T02:24:48.684Z,82.15
2019-02-27T02:25:29.128Z,83.29
2019-02-27T02:26:09.554Z,83
2019-02-27T02:26:49.965Z,82.81
2019-02-27T02:27:30.346Z,82.62
2019-02-27T02:28:12.056Z,83.19
2019-02-27T02:28:51.158Z,82.62
2019-02-27T02:29:31.625Z,81.77
2019-02-27T02:30:11.961Z,82.34
2019-02-27T02:30:52.321Z,82.15
2019-02-27T02:31:32.783Z,82.71
2019-02-27T02:32:16.723Z,82.53
2019-02-27T02:37:38.324Z,84.14
2019-02-27T02:39:29.512Z,83.62
2019-02-27T02:40:21.606Z,84.58
2019-02-27T02:41:07.892Z,84.77
2019-02-27T02:41:46.237Z,85.53
2019-02-27T02:42:24.562Z,85.43
2019-02-27T02:43:03.997Z,86
2019-02-27T02:43:44.636Z,85.72
2019-02-27T02:44:24.889Z,85.62
2019-02-27T02:45:05.416Z,85.81
2019-02-27T02:45:45.763Z,85.91
2019-02-27T02:46:26.357Z,85.81
2019-02-27T02:47:07.098Z,86.38
2019-02-27T02:47:47.266Z,85.62
2019-02-27T02:48:27.793Z,85.15
2019-02-27T02:49:08.572Z,85.15
2019-02-27T02:49:48.607Z,84.86
2019-02-27T02:50:29.006Z,85.15
2019-02-27T02:51:09.572Z,84.58
2019-02-27T02:51:50.288Z,84.86
2019-02-27T02:52:30.939Z,84.77
2019-02-27T02:53:11.188Z,85.43
2019-02-27T02:53:51.634Z,85.24
2019-02-27T02:54:36.149Z,85.34
2019-02-27T02:55:13.539Z,85.53
2019-02-27T02:55:53.627Z,85.24
2019-02-27T02:56:34.290Z,85.62
2019-02-27T02:57:14.714Z,86.57
2019-02-27T02:57:55.333Z,86.95
2019-02-27T02:58:35.827Z,86.86
2019-02-27T02:59:16.212Z,86.57
2019-02-27T02:59:59.368Z,86.29
2019-02-27T03:00:38.917Z,86.38
2019-02-27T03:01:17.763Z,87.24
2019-02-27T03:01:58.204Z,87.34
2019-02-27T03:02:38.617Z,86.19
2019-02-27T03:03:19.241Z,86.29
2019-02-27T03:03:59.506Z,85.62
2019-02-27T03:04:40.144Z,84.86
2019-02-27T03:05:23.564Z,85.34
2019-02-27T03:06:01.288Z,85.62
2019-02-27T03:06:41.708Z,85.62
2019-02-27T03:07:22.197Z,85.91
2019-02-27T03:08:03.043Z,85.81
2019-02-27T03:08:43.334Z,86.24
2019-02-27T03:09:29.995Z,86.33
2019-02-27T03:10:07.344Z,84.81
2019-02-27T03:10:44.836Z,85.57
2019-02-27T03:11:25.564Z,84.33
2019-02-27T03:12:05.802Z,83.48
2019-02-27T03:12:46.491Z,82.81
2019-02-27T03:13:26.825Z,82.77
2019-02-27T03:14:07.326Z,83.62
2019-02-27T03:14:52.902Z,84.67
2019-02-27T03:15:29.563Z,84.67
2019-02-27T03:16:08.823Z,85.47
2019-02-27T03:16:49.356Z,85.57
2019-02-27T03:17:30.864Z,84.52
2019-02-27T03:18:11.676Z,83.67
2019-02-27T03:18:54.068Z,83.1
2019-02-27T03:19:41.153Z,83.1
2019-02-27T03:20:18.733Z,84.05
2019-02-27T03:20:59.268Z,83.76
2019-02-27T03:21:39.570Z,83.86
2019-02-27T03:22:20.815Z,83.44
2019-02-27T03:23:01.269Z,83.48
2019-02-27T03:23:41.754Z,83.91
2019-02-27T03:24:27.838Z,83.53
2019-02-27T03:25:04.012Z,84.95
2019-02-27T03:25:43.478Z,85.05
2019-02-27T03:26:23.854Z,83.91
2019-02-27T03:27:04.502Z,83.72
2019-02-27T03:27:44.988Z,85.43
2019-02-27T03:28:25.464Z,84.2
2019-02-27T03:29:06.177Z,83.62
2019-02-27T03:29:51.889Z,84.01
2019-02-27T03:30:33.560Z,84.48
2019-02-27T03:31:15.598Z,85.15
2019-02-27T03:31:57.384Z,84.86
2019-02-27T03:32:28.534Z,85.91
2019-02-27T03:33:09.050Z,86.38
2019-02-27T03:33:49.387Z,86.86
2019-02-27T03:34:29.939Z,86.67
2019-02-27T03:35:10.471Z,87.19
2019-02-27T03:35:50.834Z,87.29
2019-02-27T03:36:31.656Z,87.95
2019-02-27T03:37:14.090Z,88.71
2019-02-27T03:37:54.014Z,89.19
2019-02-27T03:38:34.276Z,89
2019-02-27T03:39:15.432Z,87.86
2019-02-27T03:39:55.501Z,87.29
2019-02-27T03:40:35.917Z,88.53
2019-02-27T03:41:22.421Z,88.62
2019-02-27T03:41:59.291Z,88.53
2019-02-27T03:42:37.325Z,89.38
2019-02-27T03:43:18.631Z,89.38
2019-02-27T03:43:58.994Z,89.38
2019-02-27T03:44:39.415Z,89.19
2019-02-27T03:45:19.936Z,89.28
2019-02-27T03:46:02.932Z,89.38
2019-02-27T03:46:41.891Z,89.57
2019-02-27T03:47:21.291Z,89.76
2019-02-27T03:48:01.785Z,89.57
2019-02-27T03:48:42.389Z,90.61
2019-02-27T03:49:25.154Z,90.33
2019-02-27T03:50:06.449Z,89.28
2019-02-27T03:50:49.858Z,89.19
2019-02-27T03:51:26.921Z,89.47
2019-02-27T03:52:07.374Z,89.38
2019-02-27T03:52:47.889Z,88
2019-02-27T03:53:28.587Z,87.81
2019-02-27T03:54:08.616Z,87.62
2019-02-27T03:54:49.010Z,86.95
2019-02-27T03:55:32.816Z,88.09
2019-02-27T03:56:10.698Z,87.34
2019-02-27T03:56:51.133Z,87.71
2019-02-27T03:57:31.414Z,86.95
2019-02-27T03:58:11.790Z,86.57
2019-02-27T03:58:53.658Z,87.62
2019-02-27T03:59:34.566Z,87.43
2019-02-27T04:00:19.074Z,86.95
2019-02-27T04:00:56.303Z,86.47
2019-02-27T04:01:36.642Z,86.67
2019-02-27T04:02:17.464Z,86.67
2019-02-27T04:02:57.641Z,87.14
2019-02-27T04:03:38.042Z,86.29
2019-02-27T04:04:18.648Z,86.76
2019-02-27T04:05:05.036Z,86.47
2019-02-27T04:05:41.515Z,86.43
2019-02-27T04:06:21.396Z,86.82
2019-02-27T04:07:00.361Z,86.53
2019-02-27T04:07:40.664Z,87.67
2019-02-27T04:08:21.246Z,87.1
2019-02-27T04:09:01.676Z,86.43
2019-02-27T04:09:42.257Z,86.63
2019-02-27T04:10:22.986Z,88.05
2019-02-27T04:11:05.807Z,88.43
2019-02-27T04:11:43.581Z,89.57
2019-02-27T04:12:24.090Z,89.76
2019-02-27T04:13:05.446Z,89.19
2019-02-27T04:13:46.123Z,87.76
2019-02-27T04:14:27.604Z,87.67
2019-02-27T04:15:08.105Z,87.95
2019-02-27T04:15:53.298Z,87.48
2019-02-27T04:16:30.470Z,88.15
2019-02-27T04:20:52.803Z,88.71
2019-02-27T04:21:33.063Z,89.38
2019-02-27T04:22:13.496Z,89
2019-02-27T04:22:53.852Z,89.19
2019-02-27T04:25:06.986Z,89.67
2019-02-27T04:25:48.435Z,90.33
2019-02-27T04:26:28.865Z,90.14
2019-02-27T04:27:09.224Z,90.33
2019-02-27T04:27:55.156Z,88.9
2019-02-27T05:07:00.550Z,96.12
2019-02-27T05:09:07.094Z,98.3
2019-02-27T05:09:47.451Z,98.59
2019-02-27T05:10:27.950Z,98.97
2019-02-27T05:11:13.932Z,98.11
2019-02-27T05:11:51.528Z,97.92
2019-02-27T05:12:31.951Z,98.87
2019-02-27T05:13:12.397Z,97.74
2019-02-27T05:13:54.243Z,98.21
2019-02-27T05:14:33.121Z,98.59
2019-02-27T05:15:13.476Z,99.44
2019-02-27T05:15:53.875Z,98.78
2019-02-27T05:16:34.279Z,98.11
2019-02-27T05:17:14.696Z,97.83
2019-02-27T05:17:55.595Z,97.26
2019-02-27T05:18:35.455Z,98.11
2019-02-27T05:19:15.842Z,98.11
2019-02-27T05:19:56.233Z,96.22
2019-02-27T05:20:36.656Z,96.03
2019-02-27T05:21:19.146Z,98.11
2019-02-27T05:21:57.494Z,98.02
2019-02-27T05:22:37.853Z,97.78
2019-02-27T05:23:18.275Z,96.45
2019-02-27T05:23:58.688Z,96.55
2019-02-27T05:24:40.946Z,95.6
2019-02-27T05:25:19.484Z,96.55
2019-02-27T05:25:59.854Z,96.55
2019-02-27T05:26:40.244Z,96.31
2019-02-27T05:27:20.640Z,97.26
2019-02-27T05:28:01.414Z,96.5
2019-02-27T05:28:41.477Z,95.41
2019-02-27T05:29:23.801Z,95.51
2019-02-27T05:30:04.184Z,96.17
2019-02-27T05:30:45.195Z,94.98
2019-02-27T05:31:25.020Z,96.45
2019-02-27T05:32:05.361Z,96.36
2019-02-27T05:32:45.731Z,95.93
2019-02-27T05:33:26.117Z,95.7
2019-02-27T05:34:06.547Z,95.84
2019-02-27T05:34:49.719Z,96.88
2019-02-27T05:35:27.340Z,97.78
2019-02-27T05:36:07.808Z,96.08
2019-02-27T05:36:48.143Z,97.12
2019-02-27T05:37:28.571Z,96.64
2019-02-27T05:38:08.941Z,96.26
2019-02-27T05:38:49.330Z,95.7
2019-02-27T05:39:29.746Z,94.93
2019-02-27T05:40:10.143Z,93.89
2019-02-27T05:40:50.637Z,93.41
2019-02-27T05:41:33.144Z,92.94
2019-02-27T05:42:13.177Z,92.85
2019-02-27T05:42:52.252Z,92.85
2019-02-27T05:43:32.640Z,91.89
2019-02-27T05:44:13.021Z,91.89
2019-02-27T05:44:55.847Z,91.8
2019-02-27T05:45:33.970Z,92.56
2019-02-27T05:46:15.100Z,92.47
2019-02-27T05:46:54.877Z,92.09
2019-02-27T05:47:35.276Z,91.99
2019-02-27T05:48:19.601Z,92.28
2019-02-27T05:48:57.037Z,93.32
2019-02-27T05:49:37.392Z,93.89
2019-02-27T05:50:17.823Z,93.89
2019-02-27T05:50:58.150Z,94.46
2019-02-27T05:51:38.525Z,94.37
2019-02-27T05:52:18.942Z,92.71
2019-02-27T05:52:59.306Z,91.56
2019-02-27T05:53:39.781Z,90.71
2019-02-27T05:54:20.138Z,90.71
2019-02-27T05:55:00.516Z,90.61
2019-02-27T05:55:40.980Z,90.19
2019-02-27T05:56:21.372Z,90.47
2019-02-27T05:57:01.772Z,90.95
2019-02-27T05:57:42.154Z,90.95
2019-02-27T05:58:22.992Z,92.09
2019-02-27T05:59:02.975Z,92.23
2019-02-27T05:59:43.404Z,92.04
2019-02-27T06:00:23.810Z,91.28
2019-02-27T06:01:05.817Z,90.71
2019-02-27T06:01:45.638Z,90.95
2019-02-27T06:02:26.047Z,91.33
2019-02-27T06:03:06.451Z,90.66
2019-02-27T06:03:49.375Z,90.38
2019-02-27T06:04:27.260Z,90.95
2019-02-27T06:05:07.684Z,91.04
2019-02-27T06:05:49.670Z,91.14
2019-02-27T06:07:47.040Z,93.99
2019-02-27T06:08:26.926Z,93.04
2019-02-27T06:09:10.319Z,91.24
2019-02-27T06:09:51.159Z,90.95
2019-02-27T06:10:31.767Z,91.85
2019-02-27T06:11:12.243Z,91.99
2019-02-27T06:11:52.863Z,92.09
2019-02-27T06:12:33.377Z,91.42
2019-02-27T06:13:14.153Z,91.33
2019-02-27T06:13:55.950Z,91.8
2019-02-27T06:14:36.394Z,91.04
2019-02-27T06:15:16.793Z,91.14
2019-02-27T06:15:57.182Z,91.33
2019-02-27T06:16:40.768Z,91.89
2019-02-27T06:17:19.936Z,91.42
2019-02-27T06:18:00.358Z,90.57
2019-02-27T06:18:40.748Z,90.19
2019-02-27T06:19:21.446Z,91.14
2019-02-27T06:20:07.859Z,91.24
2019-02-27T06:31:42.984Z,90.33
2019-02-27T06:32:30.253Z,89.47
2019-02-27T06:33:11.780Z,88.81
2019-02-27T06:33:51.101Z,88.71
2019-02-27T06:34:31.466Z,88.15
2019-02-27T06:35:11.871Z,86.82
2019-02-27T06:35:52.254Z,87.57
2019-02-27T06:36:33.647Z,87.57
2019-02-27T06:37:15.485Z,86.24
2019-02-27T06:37:54.436Z,85.68
2019-02-27T06:38:34.852Z,85.3
2019-02-27T06:39:15.177Z,86.05
2019-02-27T06:39:57.435Z,85.39
2019-02-27T06:40:42.010Z,84.91
2019-02-27T06:41:18.267Z,85.39
2019-02-27T06:41:58.661Z,83.97
2019-02-27T06:42:39.097Z,83.97
2019-02-27T06:43:19.496Z,84.48
2019-02-27T06:44:02.204Z,83.06
2019-02-27T06:44:42.851Z,81.16
2019-02-27T06:45:23.291Z,80.21
2019-02-27T06:46:03.653Z,80.02
2019-02-27T06:46:44.618Z,79.92
2019-02-27T06:47:24.460Z,79.44
2019-02-27T06:48:09.314Z,79.25
2019-02-27T06:48:45.491Z,78.59
2019-02-27T06:49:26.067Z,78.21
2019-02-27T06:50:06.467Z,77.64
2019-02-27T06:50:47.004Z,78.21
2019-02-27T06:51:27.372Z,78.21
2019-02-27T06:52:09.189Z,77.45
2019-02-27T06:52:48.412Z,77.73
2019-02-27T06:53:28.846Z,77.17
2019-02-27T06:54:09.284Z,76.73
2019-02-27T06:54:51.889Z,76.25
2019-02-27T06:55:31.190Z,75.4
2019-02-27T06:56:11.586Z,75.59
2019-02-27T06:56:52.060Z,75.49
2019-02-27T06:57:32.438Z,75.21
2019-02-27T06:58:14.767Z,75.4
2019-02-27T06:58:53.334Z,74.92
2019-02-27T06:59:33.805Z,75.49
2019-02-27T07:00:14.176Z,75.59
2019-02-27T07:00:54.651Z,75.21
2019-02-27T07:01:35.107Z,75.24
2019-02-27T07:02:15.556Z,75.05
2019-02-27T07:02:56.201Z,74.67
2019-02-27T07:03:36.463Z,73.82
2019-02-27T07:04:17.082Z,73.44
2019-02-27T07:05:00.343Z,72.86
2019-02-27T07:05:41.441Z,72.67
2019-02-27T07:06:25.828Z,72.42
2019-02-27T07:07:05.818Z,71.86
2019-02-27T07:07:46.189Z,72.33
2019-02-27T07:08:26.631Z,71.38
2019-02-27T07:09:11.151Z,70.81
2019-02-27T07:09:48.927Z,70.72
2019-02-27T07:10:30.501Z,70.43
2019-02-27T07:11:11.295Z,70.47
2019-02-27T07:11:51.347Z,69.89
2019-02-27T07:12:31.817Z,69.42
2019-02-27T07:13:12.268Z,68.84
2019-02-27T07:13:52.789Z,68.08
2019-02-27T07:14:33.253Z,67.8
2019-02-27T07:15:13.869Z,67.99
2019-02-27T07:15:55.640Z,67.51
2019-02-27T07:16:35.135Z,68.02
2019-02-27T07:17:16.792Z,67.83
2019-02-27T07:17:57.783Z,68.12
2019-02-27T07:18:41.418Z,67.45
2019-02-27T07:19:24.821Z,67.16
2019-02-27T07:20:23.782Z,67.07
2019-02-27T07:21:00.453Z,67.35
2019-02-27T07:21:41.369Z,66.88
2019-02-27T07:22:23.027Z,66.59
2019-02-27T07:23:02.456Z,66.69
2019-02-27T07:23:42.913Z,66.69
2019-02-27T07:24:23.933Z,66.97
2019-02-27T07:25:06.543Z,67.55
2019-02-27T07:25:46.333Z,67.55
2019-02-27T07:26:27.195Z,68.02
2019-02-27T07:27:07.562Z,68.02
2019-02-27T07:27:48.289Z,68.69
2019-02-27T07:28:31.268Z,68.4
2019-02-27T07:29:21.513Z,68.65
2019-02-27T07:29:56.666Z,69.23
2019-02-27T07:30:39.700Z,69.42
2019-02-27T07:31:23.360Z,69.6
2019-02-27T07:32:03.938Z,69.99
2019-02-27T07:32:45.632Z,69.99
2019-02-27T07:33:26.075Z,69.79
2019-02-27T07:34:06.945Z,69.7
2019-02-27T07:34:49.718Z,70.84
2019-02-27T07:35:29.634Z,70.75
2019-02-27T07:36:11.240Z,70.56
2019-02-27T07:37:02.910Z,70.75
2019-02-27T07:37:46.803Z,72.08
2019-02-27T07:38:25.557Z,71.61
2019-02-27T07:39:05.080Z,71.89
2019-02-27T07:39:50.948Z,70.94
2019-02-27T07:40:32.431Z,70.4
2019-02-27T07:41:17.454Z,69.64
2019-02-27T07:41:55.678Z,69.17
2019-02-27T07:42:38.906Z,69.07
2019-02-27T07:43:20.477Z,68.82
2019-02-27T07:44:02.499Z,67.96
2019-02-27T07:44:44.403Z,67
2019-02-27T07:45:24.917Z,65.89
2019-02-27T07:46:05.568Z,65.23
2019-02-27T07:46:46.130Z,64.85
2019-02-27T07:47:26.932Z,63.92
2019-02-27T07:48:07.326Z,63.26
2019-02-27T07:48:56.229Z,62.68
2019-02-27T07:49:32.239Z,62.68
2019-02-27T07:50:12.589Z,61.92
2019-02-27T07:50:53.019Z,62.02
2019-02-27T07:51:33.492Z,61.16
2019-02-27T07:52:13.999Z,61.19
2019-02-27T07:52:54.382Z,61.38
2019-02-27T07:53:34.763Z,60.61
2019-02-27T07:54:16.083Z,60.04
2019-02-27T07:54:56.548Z,59.76
2019-02-27T07:55:36.980Z,59.78
2019-02-27T07:56:19.062Z,59.02
2019-02-27T07:56:59.467Z,58.73
2019-02-27T07:57:40.247Z,58.45
2019-02-27T07:58:20.773Z,57.87
2019-02-27T07:59:01.284Z,57.68
2019-02-27T07:59:41.642Z,57.33
2019-02-27T08:00:22.016Z,56.57
2019-02-27T08:01:04.520Z,56.47
2019-02-27T08:01:43.862Z,56.5
2019-02-27T08:02:23.302Z,55.26
2019-02-27T08:03:03.806Z,54.97
2019-02-27T08:03:45.514Z,55.54
2019-02-27T08:04:25.628Z,54.39
2019-02-27T08:05:06.068Z,54.52
2019-02-27T08:05:46.581Z,53.85
2019-02-27T08:06:26.950Z,53.56
2019-02-27T08:07:09.969Z,53.47
2019-02-27T08:07:49.026Z,52.7
2019-02-27T08:08:32.484Z,52.92
2019-02-27T08:09:16.883Z,51.68
2019-02-27T08:11:26.582Z,50.84
2019-02-27T08:12:08.509Z,49.98
2019-02-27T08:12:48.879Z,49.5
2019-02-27T08:13:29.731Z,49.69
2019-02-27T08:14:12.954Z,49.05
2019-02-27T08:14:52.085Z,48.85
2019-02-27T08:15:32.548Z,48.57
2019-02-27T08:16:12.977Z,47.99
2019-02-27T08:16:56.909Z,48.09
2019-02-27T08:17:34.033Z,47.73
2019-02-27T08:18:14.854Z,46.96
2019-02-27T08:18:54.921Z,46.96
2019-02-27T08:19:35.341Z,46.67
2019-02-27T08:20:19.897Z,46.58
2019-02-27T08:20:56.220Z,46.86
2019-02-27T08:21:36.669Z,46.39
2019-02-27T08:22:17.197Z,46.41
2019-02-27T08:22:57.893Z,45.26
2019-02-27T08:23:39.193Z,45.45
2019-02-27T08:24:19.497Z,45.36
2019-02-27T08:24:59.954Z,45.26
2019-02-27T08:25:40.394Z,45.07
2019-02-27T08:26:20.783Z,45.36
2019-02-27T08:27:01.189Z,44.49
2019-02-27T08:27:43.724Z,44.13
2019-02-27T08:28:22.275Z,44.03
2019-02-27T08:29:02.646Z,44.03
2019-02-27T08:29:43.002Z,44.13
2019-02-27T08:30:23.458Z,43.67
2019-02-27T08:31:03.818Z,43
2019-02-27T08:31:44.286Z,42.81
2019-02-27T08:32:24.682Z,42.35
2019-02-27T08:33:08.107Z,41.96
2019-02-27T08:33:45.655Z,41.77
2019-02-27T08:34:26.017Z,41
2019-02-27T08:35:07.184Z,41.29
2019-02-27T08:35:47.644Z,40.83
2019-02-27T08:36:28.119Z,40.16
2019-02-27T08:37:08.441Z,39.87
2019-02-27T08:37:48.851Z,39.39
2019-02-27T08:38:29.315Z,39.11
2019-02-27T08:39:09.709Z,39.87
2019-02-27T08:39:50.089Z,39.49
2019-02-27T08:40:30.467Z,39.12
2019-02-27T08:41:10.880Z,38.26
2019-02-27T08:41:51.270Z,38.74
2019-02-27T08:42:31.828Z,38.18
2019-02-27T08:43:12.233Z,37.99
2019-02-27T08:43:52.650Z,37.89
2019-02-27T08:44:33.099Z,37.89
2019-02-27T08:45:19.513Z,37.41
2019-02-27T08:45:53.913Z,37.22
2019-02-27T08:46:36.987Z,37.41
2019-02-27T08:47:14.775Z,37.32
2019-02-27T08:47:55.810Z,36.93
2019-02-27T08:48:35.662Z,37.02
2019-02-27T08:49:16.072Z,36.85
2019-02-27T08:49:57.907Z,36.56
2019-02-27T08:50:36.986Z,36.66
2019-02-27T08:51:17.400Z,36.85
2019-02-27T08:51:59.503Z,35.99
2019-02-27T08:54:00.649Z,35.42
2019-02-27T08:55:58.304Z,34.58
2019-02-27T08:56:38.699Z,33.91
2019-02-27T08:57:20.741Z,34.19
2019-02-27T08:58:01.139Z,34.48
2019-02-27T08:58:41.557Z,34
2019-02-27T08:59:22.023Z,33.81
2019-02-27T09:00:02.483Z,33.71
2019-02-27T09:00:47.054Z,33.92
2019-02-27T09:01:23.359Z,33.92
2019-02-27T09:02:03.737Z,33.92
2019-02-27T09:02:44.199Z,34.21
2019-02-27T09:03:24.607Z,33.92
2019-02-27T09:04:06.154Z,34.11
2019-02-27T09:04:46.167Z,34.4
2019-02-27T09:05:25.814Z,33.92
2019-02-27T09:06:06.262Z,33.82
2019-02-27T09:06:46.663Z,33.07
2019-02-27T09:07:27.110Z,32.78
2019-02-27T09:08:10.074Z,32.59
2019-02-27T09:08:47.950Z,32.59
2019-02-27T09:09:28.394Z,32.87
2019-02-27T09:10:08.883Z,32.78
2019-02-27T09:10:49.341Z,32.7
2019-02-27T09:11:29.885Z,32.03
2019-02-27T09:12:13.071Z,32.03
2019-02-27T09:12:51.780Z,32.03
2019-02-27T09:13:31.310Z,31.65
2019-02-27T09:14:12.161Z,31.75
2019-02-27T09:14:52.482Z,31.85
2019-02-27T09:15:32.925Z,31.75
2019-02-27T09:16:13.307Z,32.04
2019-02-27T09:16:53.730Z,31.65
2019-02-27T09:17:34.155Z,31.65
2019-02-27T09:18:14.550Z,31.28
2019-02-27T09:18:55.046Z,31.28
2019-02-27T09:19:35.460Z,30.99
2019-02-27T09:20:16.992Z,30.61
2019-02-27T09:20:56.445Z,30.8
2019-02-27T09:21:37.092Z,31.09
2019-02-27T09:22:17.775Z,30.8
2019-02-27T09:22:58.253Z,30.41
2019-02-27T09:23:38.948Z,30.32
2019-02-27T09:24:21.604Z,30.72
2019-02-27T09:25:03.131Z,30.72
2019-02-27T09:25:43.719Z,30.24
2019-02-27T09:26:24.864Z,29.67
2019-02-27T09:27:06.199Z,29.19
2019-02-27T09:27:46.681Z,29.09
2019-02-27T09:28:28.171Z,28.81
2019-02-27T09:29:08.664Z,28.91
2019-02-27T09:29:49.413Z,28.23
2019-02-27T09:30:30.169Z,27.86
2019-02-27T09:31:12.046Z,27.96
2019-02-27T09:31:52.190Z,27.86
2019-02-27T09:32:32.461Z,28.05
2019-02-27T09:33:13.677Z,27.39
2019-02-27T09:33:53.958Z,27.87
2019-02-27T09:34:33.833Z,27.1
2019-02-27T09:36:32.240Z,26.73
2019-02-27T09:37:13.843Z,26.35
2019-02-27T09:37:53.189Z,25.87
2019-02-27T09:38:34.558Z,25.67
2019-02-27T09:39:15.462Z,25.67
2019-02-27T09:39:56.105Z,25.58
2019-02-27T09:40:38.826Z,24.99
2019-02-27T09:41:17.281Z,25.58
2019-02-27T09:41:58.821Z,25.38
2019-02-27T09:42:38.363Z,24.99
2019-02-27T09:43:18.809Z,24.99
2019-02-27T09:44:01.275Z,25.29
2019-02-27T09:44:39.845Z,25.67
2019-02-27T09:45:20.512Z,25.48
2019-02-27T09:46:00.982Z,25.29
2019-02-27T09:46:41.678Z,25.01
2019-02-27T09:47:23.120Z,25.01
2019-02-27T09:48:02.846Z,24.91
2019-02-27T09:48:45.063Z,24.43
2019-02-27T09:49:26.040Z,24.82
2019-02-27T09:50:05.691Z,25.01
2019-02-27T09:50:49.074Z,24.9
2019-02-27T09:51:29.551Z,25.29
2019-02-27T09:52:10.275Z,24.9
2019-02-27T09:52:50.875Z,24.22
2019-02-27T09:53:33.899Z,24.8
2019-02-27T09:54:13.278Z,24.41
2019-02-27T09:54:52.371Z,24.22
2019-02-27T09:55:32.826Z,24.51
2019-02-27T09:56:13.816Z,24.8
2019-02-27T09:56:54.267Z,24.51
2019-02-27T09:57:35.270Z,25.2
2019-02-27T09:58:16.435Z,25.01
2019-02-27T09:58:56.917Z,24.82
2019-02-27T09:59:37.361Z,24.44
2019-02-27T10:00:17.792Z,23.08
2019-02-27T10:01:00.231Z,22.6
2019-02-27T10:01:40.179Z,22.02
2019-02-27T10:02:20.661Z,21.92